Time;durP1;ratioP1;P1;durP2;ratioP2;P2;SDS_P1;SDS_P2;PMS_P1;PMS_P2;Temp;Humidity;BMP_temperature;BMP_pressure;BME280_temperature;BME280_humidity;BME280_pressure;Samples;Min_cycle;Max_cycle;Signal;HPM_P1;HPM_P2
2022/03/03 00:02:37;;;;;;;17.27;8.70;;;;;;;-1.42;91.51;94762.72;5041401;28;20240;-65
2022/03/03 00:05:23;;;;;;;12.20;8.40;;;;;;;-1.56;91.30;94746.66;5044459;28;20194;-65
2022/03/03 00:08:09;;;;;;;11.90;8.43;;;;;;;-1.61;91.88;94763.88;5038778;28;20508;-65
2022/03/03 00:10:54;;;;;;;11.33;7.63;;;;;;;-1.68;91.40;94758.50;5042519;28;20287;-65
2022/03/03 00:13:40;;;;;;;12.93;8.37;;;;;;;-1.92;92.73;94767.31;5035114;28;20569;-66
2022/03/03 00:16:26;;;;;;;12.97;8.93;;;;;;;-1.62;94.11;94759.66;5034971;28;20206;-66
2022/03/03 00:19:12;;;;;;;18.87;8.07;;;;;;;-1.37;93.44;94759.63;5045170;28;20274;-67
2022/03/03 00:21:58;;;;;;;17.00;8.53;;;;;;;-1.70;91.83;94770.75;5046716;28;20230;-65
2022/03/03 00:24:44;;;;;;;12.03;7.77;;;;;;;-1.73;92.04;94750.84;5043644;28;20671;-66
2022/03/03 00:27:30;;;;;;;11.73;8.57;;;;;;;-1.55;93.45;94775.75;5047628;28;20333;-66
2022/03/03 00:30:16;;;;;;;13.97;8.80;;;;;;;-1.69;91.29;94756.22;5041616;28;20300;-66
2022/03/03 00:33:02;;;;;;;10.63;7.80;;;;;;;-2.00;93.34;94752.38;5039805;28;20218;-66
2022/03/03 00:35:48;;;;;;;13.60;8.23;;;;;;;-1.74;92.08;94775.34;5043106;28;20206;-66
2022/03/03 00:38:34;;;;;;;16.37;9.00;;;;;;;-1.93;93.86;94740.91;5037483;28;20209;-66
2022/03/03 00:41:20;;;;;;;15.17;9.87;;;;;;;-1.72;94.88;94770.38;5036149;28;20301;-66
2022/03/03 00:44:06;;;;;;;14.00;9.43;;;;;;;-1.66;93.05;94747.41;5040384;28;20194;-61
2022/03/03 00:46:52;;;;;;;13.80;8.97;;;;;;;-1.87;92.72;94760.81;5039301;28;20247;-60
2022/03/03 00:49:37;;;;;;;12.07;8.57;;;;;;;-1.89;94.76;94745.13;5039819;28;20332;-61
2022/03/03 00:52:23;;;;;;;13.13;8.60;;;;;;;-1.95;95.26;94762.69;5039881;28;20222;-60
2022/03/03 00:55:09;;;;;;;12.50;8.67;;;;;;;-1.90;93.94;94765.00;5046892;28;20205;-61
2022/03/03 00:57:55;;;;;;;13.70;9.07;;;;;;;-1.74;95.30;94753.91;5035991;28;20220;-61
2022/03/03 01:00:41;;;;;;;13.17;8.63;;;;;;;-1.92;93.71;94755.84;5043169;28;20187;-61
2022/03/03 01:03:28;;;;;;;12.20;8.83;;;;;;;-2.30;95.04;94759.97;5034876;28;20206;-61
2022/03/03 01:06:14;;;;;;;12.67;8.60;;;;;;;-2.07;96.49;94747.00;5044677;28;20684;-61
2022/03/03 01:09:00;;;;;;;12.83;9.17;;;;;;;-2.14;96.72;94755.03;5035306;28;20199;-61
2022/03/03 01:11:46;;;;;;;21.03;10.80;;;;;;;-2.05;96.15;94747.41;5035933;28;20309;-60
2022/03/03 01:14:32;;;;;;;13.37;9.50;;;;;;;-2.11;96.85;94748.94;5041046;28;20198;-61
2022/03/03 01:17:18;;;;;;;10.17;8.13;;;;;;;-1.99;96.86;94753.91;5032342;28;20205;-61
2022/03/03 01:20:06;;;;;;;14.17;8.83;;;;;;;-2.23;94.95;94757.31;5034670;28;20665;-61
2022/03/03 01:22:52;;;;;;;15.83;8.87;;;;;;;-1.98;96.41;94747.41;5038627;28;21026;-61
2022/03/03 01:25:37;;;;;;;15.33;9.43;;;;;;;-2.19;96.11;94752.75;5043769;28;20674;-61
2022/03/03 01:28:23;;;;;;;12.10;8.43;;;;;;;-2.21;96.66;94749.69;5040384;28;20271;-60
2022/03/03 01:31:09;;;;;;;14.87;9.23;;;;;;;-2.10;95.82;94738.97;5044809;28;20230;-61
2022/03/03 01:33:55;;;;;;;11.80;9.23;;;;;;;-2.29;96.45;94745.44;5045922;28;20285;-61
2022/03/03 01:36:41;;;;;;;12.07;8.73;;;;;;;-2.33;96.70;94750.03;5043054;28;20260;-61
2022/03/03 01:39:27;;;;;;;14.67;9.43;;;;;;;-2.46;97.73;94741.59;5029945;28;20243;-61
2022/03/03 01:42:15;;;;;;;13.07;9.13;;;;;;;-2.39;97.30;94745.44;5042252;28;20229;-61
2022/03/03 01:45:02;;;;;;;13.10;8.83;;;;;;;-2.50;97.30;94742.72;5044016;28;20210;-61
2022/03/03 01:47:48;;;;;;;15.37;9.00;;;;;;;-2.38;99.26;94747.72;5041529;28;20202;-60
2022/03/03 01:50:34;;;;;;;11.13;8.43;;;;;;;-2.24;97.19;94757.69;5040923;28;20221;-61
2022/03/03 01:53:20;;;;;;;12.10;9.03;;;;;;;-2.34;97.17;94748.47;5040167;28;20202;-61
2022/03/03 01:56:07;;;;;;;11.97;8.77;;;;;;;-2.44;98.58;94745.81;5042165;28;20198;-61
2022/03/03 01:58:54;;;;;;;10.90;8.93;;;;;;;-2.20;98.11;94729.03;5041043;28;20237;-61
2022/03/03 02:01:40;;;;;;;15.20;9.93;;;;;;;-2.17;98.69;94731.72;5043600;28;20525;-61
2022/03/03 02:04:26;;;;;;;12.17;8.90;;;;;;;-2.36;95.85;94715.25;5048352;28;20205;-61
2022/03/03 02:07:12;;;;;;;13.73;9.43;;;;;;;-2.37;97.61;94722.50;5038662;28;20203;-61
2022/03/03 02:10:01;;;;;;;12.13;8.87;;;;;;;-2.27;96.78;94719.09;5044038;28;20731;-60
2022/03/03 02:12:47;;;;;;;14.03;8.97;;;;;;;-2.32;98.92;94711.44;5042714;28;20309;-66
2022/03/03 02:15:32;;;;;;;14.43;9.67;;;;;;;-2.30;97.91;94706.47;5033848;28;20194;-65
2022/03/03 02:18:19;;;;;;;13.57;8.77;;;;;;;-2.65;96.99;94711.75;5044453;28;20207;-65
2022/03/03 02:21:05;;;;;;;13.00;9.13;;;;;;;-2.53;98.31;94709.47;5044680;28;20638;-65
2022/03/03 02:23:51;;;;;;;11.43;9.17;;;;;;;-2.20;97.44;94699.59;5037020;28;20240;-66
2022/03/03 02:26:39;;;;;;;9.77;8.33;;;;;;;-2.44;96.35;94692.34;5045893;28;20249;-66
2022/03/03 02:29:25;;;;;;;15.93;9.70;;;;;;;-3.15;99.68;94694.75;5042463;28;20227;-66
2022/03/03 02:32:11;;;;;;;20.23;10.07;;;;;;;-3.28;100.00;94703.47;5047109;28;20359;-66
2022/03/03 02:34:57;;;;;;;11.97;9.07;;;;;;;-3.47;100.00;94688.50;5030624;28;20199;-66
2022/03/03 02:37:44;;;;;;;12.27;9.60;;;;;;;-2.99;100.00;94697.91;5044912;28;20468;-65
2022/03/03 02:40:30;;;;;;;16.10;9.80;;;;;;;-3.01;100.00;94697.50;5044130;28;20214;-65
2022/03/03 02:43:16;;;;;;;13.00;8.83;;;;;;;-3.02;100.00;94695.97;5037238;28;20257;-66
2022/03/03 02:46:02;;;;;;;12.83;9.80;;;;;;;-2.89;100.00;94694.50;5046998;28;20579;-65
2022/03/03 02:48:48;;;;;;;12.60;9.17;;;;;;;-3.00;100.00;94693.69;5035315;28;20649;-66
2022/03/03 02:51:35;;;;;;;16.00;10.50;;;;;;;-2.99;100.00;94692.56;5039461;28;20218;-65
2022/03/03 02:54:21;;;;;;;18.27;9.67;;;;;;;-3.40;100.00;94690.44;5037752;28;20210;-65
2022/03/03 03:00:12;;;;;;;11.00;9.10;;;;;;;-3.61;100.00;94693.00;5044944;28;20209;-62
2022/03/03 03:02:58;;;;;;;15.30;10.90;;;;;;;-3.70;100.00;94702.06;5037766;28;21205;-62
2022/03/03 03:05:45;;;;;;;16.17;9.53;;;;;;;-3.87;100.00;94704.63;5049695;28;20210;-62
2022/03/03 03:08:31;;;;;;;13.90;8.90;;;;;;;-3.95;100.00;94685.13;5038077;28;20187;-61
2022/03/03 03:11:17;;;;;;;15.17;8.97;;;;;;;-3.89;100.00;94693.56;5035374;28;20214;-61
2022/03/03 03:14:03;;;;;;;14.33;10.13;;;;;;;-3.74;100.00;94693.31;5047100;28;20194;-64
2022/03/03 03:16:49;;;;;;;11.57;9.03;;;;;;;-3.52;100.00;94702.19;5046454;28;21014;-64
2022/03/03 03:19:35;;;;;;;13.70;9.63;;;;;;;-3.59;100.00;94704.81;5041688;28;20642;-64
2022/03/03 03:22:21;;;;;;;15.53;9.03;;;;;;;-3.77;100.00;94695.94;5048467;28;20222;-64
2022/03/03 03:25:12;;;;;;;14.03;9.70;;;;;;;-3.88;100.00;94690.53;5046517;28;20626;-64
2022/03/03 03:27:58;;;;;;;15.63;9.43;;;;;;;-4.01;100.00;94688.53;5039117;28;20202;-64
2022/03/03 03:30:44;;;;;;;11.43;9.17;;;;;;;-3.53;100.00;94684.66;5037070;28;20245;-64
2022/03/03 03:33:30;;;;;;;16.43;9.77;;;;;;;-3.29;100.00;94694.69;5041685;28;20290;-64
2022/03/03 03:36:16;;;;;;;13.83;9.67;;;;;;;-3.75;100.00;94683.75;5028539;28;20206;-64
2022/03/03 03:39:02;;;;;;;11.40;9.37;;;;;;;-3.98;100.00;94672.56;5039306;28;20203;-64
2022/03/03 03:41:48;;;;;;;14.20;9.00;;;;;;;-3.68;100.00;94677.69;5047154;28;20309;-64
2022/03/03 03:44:35;;;;;;;10.83;9.00;;;;;;;-3.57;100.00;94681.19;5040004;28;20199;-64
2022/03/03 03:47:21;;;;;;;16.40;8.97;;;;;;;-3.72;100.00;94671.59;5044186;28;20209;-64
2022/03/03 03:50:09;;;;;;;15.97;8.90;;;;;;;-3.99;100.00;94664.94;5045115;28;20245;-64
2022/03/03 03:52:55;;;;;;;12.57;8.73;;;;;;;-3.85;100.00;94657.78;5042969;28;20252;-64
2022/03/03 03:55:41;;;;;;;11.90;9.50;;;;;;;-3.58;100.00;94663.63;5030141;28;20195;-65
2022/03/03 03:58:27;;;;;;;12.70;9.97;;;;;;;-3.43;100.00;94667.16;5047203;28;20194;-65
2022/03/03 04:01:13;;;;;;;13.60;9.80;;;;;;;-3.30;100.00;94666.47;5036055;28;20231;-65
2022/03/03 04:03:59;;;;;;;13.83;9.10;;;;;;;-3.43;100.00;94662.59;5041920;28;20202;-65
2022/03/03 04:06:45;;;;;;;14.70;9.97;;;;;;;-3.42;100.00;94671.34;5039143;28;20218;-66
2022/03/03 04:09:31;;;;;;;16.23;10.27;;;;;;;-3.47;100.00;94658.38;5026709;28;20273;-65
2022/03/03 04:12:17;;;;;;;11.00;9.00;;;;;;;-3.64;100.00;94656.38;5038710;28;20256;-65
2022/03/03 04:15:03;;;;;;;11.87;9.17;;;;;;;-3.81;100.00;94655.13;5044006;28;20197;-65
2022/03/03 04:17:49;;;;;;;9.40;8.13;;;;;;;-3.94;100.00;94653.91;5036046;28;20202;-65
2022/03/03 04:20:35;;;;;;;12.30;9.47;;;;;;;-4.10;100.00;94637.41;5043752;28;20190;-66
2022/03/03 04:23:22;;;;;;;13.33;8.60;;;;;;;-4.30;100.00;94644.88;5033496;28;20199;-65
2022/03/03 04:26:08;;;;;;;11.37;8.13;;;;;;;-4.51;100.00;94634.03;5039879;28;20759;-65
2022/03/03 04:28:54;;;;;;;13.73;9.90;;;;;;;-4.28;100.00;94629.28;5036212;28;20268;-66
2022/03/03 04:31:40;;;;;;;13.10;9.83;;;;;;;-3.94;100.00;94641.31;5034875;28;20209;-65
2022/03/03 04:34:26;;;;;;;14.73;10.27;;;;;;;-3.86;100.00;94634.91;5040700;28;20250;-66
2022/03/03 04:37:12;;;;;;;15.47;9.70;;;;;;;-3.91;100.00;94629.94;5046367;28;20194;-65
2022/03/03 04:39:58;;;;;;;15.23;9.93;;;;;;;-3.81;100.00;94629.22;5036204;28;20260;-65
2022/03/03 04:42:44;;;;;;;12.97;9.20;;;;;;;-3.84;100.00;94629.97;5039537;28;20250;-65
2022/03/03 04:45:30;;;;;;;13.93;10.17;;;;;;;-4.12;100.00;94643.09;5032022;28;21950;-65
2022/03/03 04:48:15;;;;;;;12.67;9.27;;;;;;;-4.39;100.00;94643.66;5036933;28;20199;-65
2022/03/03 04:51:01;;;;;;;12.13;9.63;;;;;;;-4.33;100.00;94655.50;5038704;28;20297;-65
2022/03/03 04:53:47;;;;;;;12.13;8.70;;;;;;;-4.37;100.00;94642.16;5033139;28;20269;-65
2022/03/03 04:56:35;;;;;;;17.83;10.37;;;;;;;-4.12;100.00;94642.34;5056614;28;20194;-65
2022/03/03 04:59:23;;;;;;;15.03;10.13;;;;;;;-3.81;100.00;94637.22;5034365;28;20754;-65
2022/03/03 05:02:09;;;;;;;17.33;10.47;;;;;;;-4.14;100.00;94637.38;5038748;28;20226;-66
2022/03/03 05:04:55;;;;;;;12.10;9.27;;;;;;;-4.49;100.00;94631.78;5039151;28;20205;-65
2022/03/03 05:07:41;;;;;;;13.50;9.83;;;;;;;-3.86;100.00;94623.47;5036386;28;20208;-65
2022/03/03 05:10:27;;;;;;;12.87;8.47;;;;;;;-3.88;100.00;94623.84;5034364;28;20247;-65
2022/03/03 05:13:13;;;;;;;16.07;9.97;;;;;;;-3.88;100.00;94626.50;5037284;28;20562;-65
2022/03/03 05:15:58;;;;;;;12.07;9.63;;;;;;;-3.90;100.00;94630.69;5029971;28;20230;-65
2022/03/03 05:18:44;;;;;;;12.37;9.80;;;;;;;-4.15;100.00;94635.84;5040548;28;20209;-65
2022/03/03 05:21:31;;;;;;;15.93;10.87;;;;;;;-3.88;100.00;94631.84;5044258;28;20236;-65
2022/03/03 05:24:18;;;;;;;16.77;10.93;;;;;;;-3.89;100.00;94624.22;5040661;28;20320;-65
2022/03/03 05:27:04;;;;;;;14.70;10.13;;;;;;;-3.92;100.00;94635.66;5037992;28;20207;-65
2022/03/03 05:29:50;;;;;;;16.27;10.53;;;;;;;-3.94;100.00;94641.31;5041661;28;20763;-65
2022/03/03 05:32:36;;;;;;;17.00;10.23;;;;;;;-3.96;100.00;94632.19;5033541;28;20221;-65
2022/03/03 05:35:22;;;;;;;15.47;10.63;;;;;;;-4.01;100.00;94637.84;5048945;28;20244;-65
2022/03/03 05:38:09;;;;;;;17.40;10.27;;;;;;;-3.91;100.00;94631.81;5046057;28;20198;-65
2022/03/03 05:40:56;;;;;;;14.90;10.13;;;;;;;-3.82;100.00;94634.94;5045277;28;20223;-65
2022/03/03 05:43:42;;;;;;;15.03;9.77;;;;;;;-3.89;100.00;94626.91;5049819;28;20214;-65
2022/03/03 05:46:30;;;;;;;13.57;9.50;;;;;;;-3.99;100.00;94628.34;5043082;28;20582;-65
2022/03/03 05:49:19;;;;;;;13.17;8.93;;;;;;;-4.40;100.00;94624.25;5053761;28;20197;-65
2022/03/03 05:52:05;;;;;;;14.43;9.57;;;;;;;-4.75;100.00;94609.88;5068777;28;20275;-65
2022/03/03 05:54:52;;;;;;;12.43;9.10;;;;;;;-4.80;100.00;94621.59;5044113;28;20649;-61
2022/03/03 05:57:48;;;;;;;14.10;9.87;;;;;;;-4.85;100.00;94608.63;5036114;28;20284;-62
2022/03/03 06:00:34;;;;;;;13.43;9.20;;;;;;;-4.87;100.00;94607.47;5042786;28;20221;-61
2022/03/03 06:03:22;;;;;;;13.97;9.80;;;;;;;-4.80;100.00;94612.84;5039962;28;20236;-61
2022/03/03 06:06:21;;;;;;;12.50;9.10;;;;;;;-4.65;100.00;94620.63;5051018;28;20218;-62
2022/03/03 06:09:17;;;;;;;15.10;9.87;;;;;;;-4.69;100.00;94611.81;5041181;28;20210;-61
2022/03/03 06:12:06;;;;;;;22.00;10.53;;;;;;;-4.61;100.00;94613.41;5046397;28;20230;-62
2022/03/03 06:14:55;;;;;;;11.43;9.30;;;;;;;-4.55;100.00;94611.94;5049824;28;20670;-61
2022/03/03 06:17:44;;;;;;;12.77;9.47;;;;;;;-4.58;100.00;94612.66;5040398;28;20242;-61
2022/03/03 06:20:32;;;;;;;13.90;9.73;;;;;;;-4.62;100.00;94606.56;5047090;28;20187;-61
2022/03/03 06:23:19;;;;;;;15.30;10.00;;;;;;;-4.63;100.00;94601.59;5059978;28;20190;-61
2022/03/03 06:26:09;;;;;;;14.37;10.77;;;;;;;-4.24;100.00;94608.00;5050238;28;20267;-61
2022/03/03 06:28:57;;;;;;;16.70;11.20;;;;;;;-3.62;100.00;94603.41;5038963;28;20202;-61
2022/03/03 06:31:43;;;;;;;13.90;10.70;;;;;;;-3.81;100.00;94607.13;5042701;28;20573;-65
2022/03/03 06:34:29;;;;;;;16.70;10.67;;;;;;;-4.10;100.00;94600.06;5042518;28;20677;-65
2022/03/03 06:37:15;;;;;;;20.20;12.80;;;;;;;-3.94;100.00;94606.66;5030622;28;20194;-65
2022/03/03 06:40:01;;;;;;;17.30;10.30;;;;;;;-3.59;100.00;94594.63;5035162;28;20195;-65
2022/03/03 06:42:48;;;;;;;15.93;10.80;;;;;;;-3.32;100.00;94607.34;5045582;28;20641;-65
2022/03/03 06:45:34;;;;;;;15.63;10.03;;;;;;;-3.19;100.00;94605.13;5036540;28;20229;-64
2022/03/03 06:48:20;;;;;;;17.30;9.97;;;;;;;-3.08;100.00;94592.53;5043941;28;20195;-65
2022/03/03 06:51:06;;;;;;;20.23;10.40;;;;;;;-3.01;100.00;94588.00;5052096;28;20218;-65
2022/03/03 06:53:57;;;;;;;15.83;10.17;;;;;;;-2.97;100.00;94588.75;5046310;28;20213;-65
2022/03/03 06:56:54;;;;;;;18.30;10.63;;;;;;;-3.22;100.00;94585.25;5046548;28;20264;-64
2022/03/03 06:59:40;;;;;;;19.63;10.60;;;;;;;-3.14;100.00;94586.81;5036811;28;20293;-64
2022/03/03 07:02:27;;;;;;;14.83;10.77;;;;;;;-2.83;100.00;94563.97;5042166;28;20233;-65
2022/03/03 07:05:13;;;;;;;18.63;11.00;;;;;;;-2.94;100.00;94566.66;5032377;28;20222;-65
2022/03/03 07:07:59;;;;;;;15.97;10.30;;;;;;;-2.81;100.00;94575.03;5043178;28;20194;-64
2022/03/03 07:10:46;;;;;;;18.70;10.93;;;;;;;-2.56;100.00;94586.50;5048415;28;20214;-65
2022/03/03 07:13:32;;;;;;;20.10;12.13;;;;;;;-2.20;100.00;94568.56;5037377;28;20586;-65
2022/03/03 07:16:40;;;;;;;16.43;11.17;;;;;;;-1.93;100.00;94570.44;5049061;28;20198;-64
2022/03/03 07:19:25;;;;;;;15.37;11.10;;;;;;;-1.64;100.00;94565.78;5045572;28;20225;-65
2022/03/03 07:22:14;;;;;;;16.90;11.70;;;;;;;-1.53;100.00;94569.94;5028482;28;20214;-65
2022/03/03 07:25:10;;;;;;;22.20;12.70;;;;;;;-1.37;100.00;94570.25;5035997;28;20226;-64
2022/03/03 07:28:01;;;;;;;20.30;11.50;;;;;;;-1.25;100.00;94571.75;5040747;28;20202;-65
2022/03/03 07:30:50;;;;;;;13.87;11.50;;;;;;;-1.10;100.00;94565.16;5041186;28;20239;-65
2022/03/03 07:33:58;;;;;;;19.73;12.53;;;;;;;-0.92;100.00;94567.75;5043311;28;20203;-65
2022/03/03 07:36:46;;;;;;;16.57;11.93;;;;;;;-0.82;100.00;94556.19;5040946;28;20213;-65
2022/03/03 07:39:39;;;;;;;15.13;12.13;;;;;;;-0.69;100.00;94554.56;5032489;28;20209;-65
2022/03/03 07:42:26;;;;;;;18.20;12.07;;;;;;;-0.47;100.00;94550.59;5047248;28;20214;-65
2022/03/03 07:45:12;;;;;;;18.27;11.67;;;;;;;-0.48;100.00;94549.84;5044880;28;20578;-64
2022/03/03 07:47:58;;;;;;;16.17;12.13;;;;;;;-0.25;100.00;94547.34;5048750;28;20194;-64
2022/03/03 07:50:44;;;;;;;16.63;12.00;;;;;;;-0.06;100.00;94546.03;5031068;28;20233;-64
2022/03/03 07:53:30;;;;;;;15.13;11.77;;;;;;;-0.06;100.00;94540.66;5037508;28;20278;-64
2022/03/03 07:56:24;;;;;;;18.63;12.33;;;;;;;0.10;100.00;94548.94;5038947;28;20194;-64
2022/03/03 07:59:14;;;;;;;14.60;12.30;;;;;;;0.08;100.00;94545.91;5037576;28;20277;-64
2022/03/03 08:02:04;;;;;;;16.43;11.90;;;;;;;0.19;100.00;94548.47;5041878;28;20286;-64
2022/03/03 08:04:51;;;;;;;18.03;13.33;;;;;;;0.41;100.00;94552.47;5044862;28;20190;-64
2022/03/03 08:07:45;;;;;;;16.97;10.93;;;;;;;0.57;100.00;94526.56;5034547;28;20285;-65
2022/03/03 08:10:32;;;;;;;15.50;11.43;;;;;;;0.48;100.00;94528.19;5036661;28;20617;-64
2022/03/03 08:13:18;;;;;;;15.30;11.27;;;;;;;0.66;100.00;94539.50;5033898;28;20685;-64
2022/03/03 08:16:05;;;;;;;17.03;10.90;;;;;;;0.80;100.00;94548.13;5040950;28;20190;-65
2022/03/03 08:18:57;;;;;;;15.20;11.53;;;;;;;1.11;100.00;94551.56;5041606;28;20222;-64
2022/03/03 08:21:47;;;;;;;14.63;10.73;;;;;;;1.11;100.00;94541.59;5050887;28;20238;-64
2022/03/03 08:24:34;;;;;;;16.43;8.50;;;;;;;1.27;100.00;94544.41;5041040;28;20283;-64
2022/03/03 08:27:21;;;;;;;11.43;7.37;;;;;;;1.41;99.43;94548.84;5038555;28;20210;-64
2022/03/03 08:30:08;;;;;;;6.33;5.27;;;;;;;1.38;86.07;94543.50;5045802;28;20268;-64
2022/03/03 08:33:04;;;;;;;7.37;4.63;;;;;;;1.60;79.47;94552.78;5044963;28;20234;-64
2022/03/03 08:35:55;;;;;;;7.03;4.80;;;;;;;1.88;81.50;94545.03;5034588;28;20632;-64
2022/03/03 08:38:47;;;;;;;7.67;5.50;;;;;;;2.09;78.65;94557.34;5051406;28;20194;-64
2022/03/03 08:41:39;;;;;;;9.80;4.63;;;;;;;2.26;76.72;94557.06;5033089;28;20257;-65
2022/03/03 08:44:32;;;;;;;9.53;5.00;;;;;;;2.48;74.66;94541.25;5046778;28;20281;-65
2022/03/03 08:47:20;;;;;;;6.60;3.90;;;;;;;2.40;70.65;94532.56;5043258;28;20187;-65
2022/03/03 08:50:13;;;;;;;5.43;4.43;;;;;;;2.39;70.04;94543.75;5046824;28;20223;-65
2022/03/03 08:53:00;;;;;;;7.17;4.60;;;;;;;2.65;69.90;94544.81;5042616;28;20215;-65
2022/03/03 08:55:46;;;;;;;7.23;4.80;;;;;;;2.74;73.42;94536.91;5042169;28;20658;-64
2022/03/03 08:58:32;;;;;;;7.40;4.80;;;;;;;2.88;72.81;94536.63;5054794;28;20186;-64
2022/03/03 09:01:18;;;;;;;6.70;4.67;;;;;;;2.90;70.87;94526.19;5036517;28;20215;-64
2022/03/03 09:04:06;;;;;;;5.97;4.03;;;;;;;3.09;68.01;94525.41;5042273;28;20260;-64
2022/03/03 09:06:52;;;;;;;4.20;3.80;;;;;;;3.00;64.95;94507.09;5041975;28;20709;-65
2022/03/03 09:09:38;;;;;;;5.03;4.00;;;;;;;3.39;66.39;94500.81;5053021;28;20278;-65
2022/03/03 09:12:24;;;;;;;7.17;5.00;;;;;;;3.43;64.88;94509.59;5040147;28;20218;-65
2022/03/03 09:15:11;;;;;;;7.30;5.13;;;;;;;3.56;66.38;94505.78;5045164;28;20197;-65
2022/03/03 09:17:57;;;;;;;6.03;4.80;;;;;;;3.75;69.31;94506.16;5037172;28;20567;-65
2022/03/03 09:20:43;;;;;;;7.07;5.40;;;;;;;3.77;69.51;94503.78;5033915;28;20229;-65
2022/03/03 09:23:29;;;;;;;6.47;5.50;;;;;;;3.65;68.26;94503.28;5040153;28;20554;-65
2022/03/03 09:26:15;;;;;;;14.70;5.70;;;;;;;3.37;68.12;94509.34;5040655;28;20205;-61
2022/03/03 09:29:01;;;;;;;8.07;5.93;;;;;;;3.35;69.44;94495.50;5038054;28;20230;-62
2022/03/03 09:31:47;;;;;;;10.07;6.00;;;;;;;3.53;68.96;94495.84;5038102;28;20220;-62
2022/03/03 09:34:33;;;;;;;10.00;5.97;;;;;;;4.05;68.20;94492.28;5049868;28;20246;-62
2022/03/03 09:37:19;;;;;;;10.10;7.03;;;;;;;4.41;66.71;94488.19;5045752;28;20199;-62
2022/03/03 09:40:08;;;;;;;28.87;16.20;;;;;;;4.60;66.01;94486.53;5049391;28;20183;-62
2022/03/03 09:43:07;;;;;;;8.43;6.67;;;;;;;4.70;64.51;94496.31;5041886;28;20223;-66
2022/03/03 09:45:52;;;;;;;9.03;6.30;;;;;;;4.88;64.59;94488.44;5037379;28;20219;-66
2022/03/03 09:48:39;;;;;;;10.03;6.50;;;;;;;4.91;63.07;94487.59;5042703;28;20233;-66
2022/03/03 09:51:24;;;;;;;7.90;6.13;;;;;;;5.24;61.96;94485.47;5038086;28;20254;-66
2022/03/03 09:54:11;;;;;;;8.83;7.03;;;;;;;5.36;61.96;94479.28;5047177;28;20277;-65
2022/03/03 09:56:57;;;;;;;8.73;6.60;;;;;;;5.53;60.52;94484.13;5047382;28;20214;-65
2022/03/03 09:59:44;;;;;;;10.97;8.03;;;;;;;5.63;61.25;94485.00;5034153;28;20194;-64
2022/03/03 10:02:30;;;;;;;9.90;7.57;;;;;;;6.20;62.46;94481.97;5033302;28;20597;-65
2022/03/03 10:05:30;;;;;;;9.90;7.03;;;;;;;7.63;61.38;94485.25;5047687;28;20751;-65
2022/03/03 10:08:21;;;;;;;10.63;6.90;;;;;;;7.35;56.62;94484.38;5050012;28;20202;-67
2022/03/03 10:11:10;;;;;;;10.13;7.30;;;;;;;7.42;53.40;94484.13;5043770;28;20301;-67
2022/03/03 10:13:56;;;;;;;14.17;8.07;;;;;;;7.67;52.64;94472.31;5029929;28;20203;-67
2022/03/03 10:16:48;;;;;;;10.07;7.30;;;;;;;7.97;51.05;94477.66;5042054;28;20530;-63
2022/03/03 10:19:34;;;;;;;9.83;7.93;;;;;;;7.70;50.27;94465.97;5038522;28;20203;-62
2022/03/03 10:22:25;;;;;;;13.87;8.53;;;;;;;7.61;43.03;94477.56;5032054;28;20260;-62
2022/03/03 10:25:13;;;;;;;13.80;8.90;;;;;;;7.48;42.16;94474.19;5045905;28;20202;-62
2022/03/03 10:28:16;;;;;;;16.03;9.20;;;;;;;7.21;42.02;94474.09;5036393;28;20727;-64
2022/03/03 10:31:05;;;;;;;12.47;7.67;;;;;;;6.89;41.24;94477.22;5042171;28;20215;-64
2022/03/03 10:33:50;;;;;;;13.07;8.50;;;;;;;6.91;42.94;94472.84;5038896;28;20187;-64
2022/03/03 10:36:36;;;;;;;9.70;8.20;;;;;;;7.06;42.39;94484.72;5031707;28;20569;-65
2022/03/03 10:39:23;;;;;;;11.23;8.40;;;;;;;7.10;43.37;94488.06;5031180;28;20378;-64
2022/03/03 10:42:23;;;;;;;11.87;7.80;;;;;;;7.07;42.50;94486.25;5041679;28;20825;-64
2022/03/03 10:45:11;;;;;;;11.07;7.27;;;;;;;6.89;41.69;94491.53;5062656;28;20324;-64
2022/03/03 10:48:00;;;;;;;12.00;7.77;;;;;;;6.93;41.58;94484.03;5038689;28;20199;-62
2022/03/03 10:50:47;;;;;;;10.63;6.90;;;;;;;7.10;41.50;94485.34;5032548;28;20226;-66
2022/03/03 10:53:33;;;;;;;12.20;6.93;;;;;;;7.04;39.28;94489.81;5036864;28;20269;-66
2022/03/03 10:56:19;;;;;;;8.10;6.40;;;;;;;7.07;38.55;94471.91;5037906;28;20195;-66
2022/03/03 10:59:06;;;;;;;7.00;6.20;;;;;;;6.78;35.53;94471.41;5051292;28;20194;-64
2022/03/03 11:01:53;;;;;;;10.10;6.90;;;;;;;6.88;37.37;94470.28;5046141;28;20244;-66
2022/03/03 11:04:41;;;;;;;7.87;6.53;;;;;;;7.18;38.63;94458.66;5038543;28;20191;-66
2022/03/03 11:07:27;;;;;;;10.00;6.40;;;;;;;7.20;36.64;94462.47;5036648;28;20380;-66
2022/03/03 11:10:25;;;;;;;8.20;6.60;;;;;;;7.18;35.58;94464.09;5069317;28;20305;-66
2022/03/03 11:13:11;;;;;;;7.63;6.60;;;;;;;7.12;35.76;94450.34;5038901;28;20241;-66
2022/03/03 11:15:58;;;;;;;8.20;6.00;;;;;;;7.20;35.69;94439.97;5049643;28;20186;-66
2022/03/03 11:18:45;;;;;;;7.90;5.97;;;;;;;7.40;34.19;94439.59;5048244;28;20193;-65
2022/03/03 11:21:31;;;;;;;9.17;7.37;;;;;;;7.30;34.31;94442.28;5042530;28;20289;-64
2022/03/03 11:24:18;;;;;;;8.27;6.67;;;;;;;7.27;34.98;94442.41;5047314;28;20195;-64
2022/03/03 11:27:05;;;;;;;7.83;6.60;;;;;;;7.40;33.70;94434.19;5037610;28;20259;-64
2022/03/03 11:30:12;;;;;;;9.40;6.80;;;;;;;7.51;34.49;94421.69;5040216;28;20281;-64
2022/03/03 11:33:17;;;;;;;7.57;6.47;;;;;;;7.60;34.25;94420.94;5036643;28;20213;-64
2022/03/03 11:36:07;;;;;;;11.33;7.00;;;;;;;7.76;34.93;94426.09;5030071;28;20236;-64
2022/03/03 11:39:00;;;;;;;10.00;6.77;;;;;;;7.77;36.40;94420.22;5033627;28;20190;-65
2022/03/03 11:41:51;;;;;;;9.47;7.30;;;;;;;7.69;36.00;94419.00;5041995;28;20310;-65
2022/03/03 11:44:37;;;;;;;9.73;7.50;;;;;;;7.71;36.92;94407.66;5050016;28;20263;-65
2022/03/03 11:47:25;;;;;;;10.57;7.20;;;;;;;7.57;36.73;94391.97;5046575;28;20707;-65
2022/03/03 11:50:23;;;;;;;11.40;7.53;;;;;;;7.86;35.93;94397.72;5049165;28;20585;-65
2022/03/03 11:53:09;;;;;;;11.67;7.63;;;;;;;7.57;36.52;94387.25;5032670;28;20218;-65
2022/03/03 11:55:55;;;;;;;13.80;7.30;;;;;;;7.66;36.44;94390.00;5039421;28;20202;-64
2022/03/03 11:58:41;;;;;;;8.60;7.30;;;;;;;7.85;35.91;94377.97;5041656;28;20191;-65
2022/03/03 12:01:27;;;;;;;12.67;7.20;;;;;;;7.82;35.82;94373.41;5037339;28;20756;-66
2022/03/03 12:04:16;;;;;;;9.50;7.47;;;;;;;7.86;35.53;94374.03;5039235;28;20609;-65
2022/03/03 12:07:02;;;;;;;14.60;6.97;;;;;;;7.85;36.25;94374.47;5042446;28;20293;-65
2022/03/03 12:09:49;;;;;;;9.07;7.00;;;;;;;8.01;36.75;94383.09;5049536;28;20250;-64
2022/03/03 12:12:34;;;;;;;11.93;7.93;;;;;;;7.91;36.93;94376.13;5039429;28;20207;-65
2022/03/03 12:15:20;;;;;;;10.40;8.40;;;;;;;8.00;36.22;94375.38;5044997;28;20195;-64
2022/03/03 12:18:08;;;;;;;13.63;7.43;;;;;;;8.00;36.34;94373.44;5046637;28;20293;-64
2022/03/03 12:21:23;;;;;;;9.07;7.63;;;;;;;8.06;35.95;94355.28;5040213;28;20205;-64
2022/03/03 12:24:17;;;;;;;11.90;7.97;;;;;;;7.93;36.05;94362.09;5034002;28;20199;-65
2022/03/03 12:27:07;;;;;;;10.93;7.23;;;;;;;7.88;36.47;94365.41;5042678;28;20281;-65
2022/03/03 12:29:57;;;;;;;11.03;8.13;;;;;;;8.19;36.25;94369.50;5042725;28;20238;-65
2022/03/03 12:32:44;;;;;;;14.47;7.90;;;;;;;8.32;36.72;94366.63;5037258;28;20222;-65
2022/03/03 12:35:32;;;;;;;8.57;7.37;;;;;;;8.31;35.54;94367.84;5049345;28;20274;-65
2022/03/03 12:38:18;;;;;;;8.60;6.83;;;;;;;8.16;35.18;94361.50;5042103;28;20210;-64
2022/03/03 12:41:04;;;;;;;10.33;7.80;;;;;;;8.22;36.03;94346.06;5042079;28;20601;-64
2022/03/03 12:43:50;;;;;;;12.43;8.43;;;;;;;8.54;36.09;94361.75;5032229;28;20195;-65
2022/03/03 12:46:37;;;;;;;9.50;7.83;;;;;;;8.29;37.13;94343.84;5050271;28;20194;-65
2022/03/03 12:49:23;;;;;;;11.57;8.40;;;;;;;8.46;35.93;94357.84;5047519;28;20186;-65
2022/03/03 12:52:09;;;;;;;12.37;7.87;;;;;;;8.48;36.76;94355.44;5035830;28;20227;-65
2022/03/03 12:54:56;;;;;;;14.40;8.47;;;;;;;8.32;35.97;94342.16;5041097;28;20580;-65
2022/03/03 12:57:41;;;;;;;11.63;7.50;;;;;;;8.34;36.77;94345.94;5038274;28;20252;-66
2022/03/03 13:00:31;;;;;;;10.73;7.73;;;;;;;8.27;36.21;94345.47;5040482;28;20202;-67
2022/03/03 13:03:20;;;;;;;13.80;8.10;;;;;;;8.24;36.63;94339.00;5033537;28;20234;-67